<?xml version="1.0" encoding="UTF-8" standalone="no" ?>
<gpx xmlns="http://www.topografix.com/GPX/1/1" xmlns:xsi="http://www.w3.org/2001/XMLSchema-instance" xsi:schemaLocation="http://www.topografix.com/GPX/1/1 http://www.topografix.com/GPX/1/1/gpx.xsd" version="1.1" creator="VisuGPX - https://www.visugpx.com">
  <metadata>
    <name>2019-06-16 - Altschlossfelsen-le-colorado-du-bitcherland</name>
  </metadata>
  <trk>
    <name><![CDATA[2019-06-16 12:50:45]]></name>
    <trkseg>
      <trkpt lat="49.10014" lon="7.51643">
        <ele>307.6</ele>
        <time>2019-06-16T07:44:27Z</time>
      </trkpt>
      <trkpt lat="49.10013" lon="7.51639">
        <ele>307.62</ele>
        <time>2019-06-16T07:44:29Z</time>
      </trkpt>
      <trkpt lat="49.10015" lon="7.51638">
        <ele>307.08</ele>
        <time>2019-06-16T07:44:40Z</time>
      </trkpt>
      <trkpt lat="49.10004" lon="7.51635">
        <ele>307.34</ele>
        <time>2019-06-16T07:44:49Z</time>
      </trkpt>
      <trkpt lat="49.10008" lon="7.5164">
        <ele>307.31</ele>
        <time>2019-06-16T07:45:02Z</time>
      </trkpt>
      <trkpt lat="49.1001" lon="7.51638">
        <ele>307.27</ele>
        <time>2019-06-16T07:45:28Z</time>
      </trkpt>
      <trkpt lat="49.10011" lon="7.51641">
        <ele>307.17</ele>
        <time>2019-06-16T07:45:34Z</time>
      </trkpt>
      <trkpt lat="49.09995" lon="7.51697">
        <ele>308.11</ele>
        <time>2019-06-16T07:52:31Z</time>
      </trkpt>
      <trkpt lat="49.09994" lon="7.51729">
        <ele>309.21</ele>
        <time>2019-06-16T07:52:49Z</time>
      </trkpt>
      <trkpt lat="49.09999" lon="7.51757">
        <ele>309.49</ele>
        <time>2019-06-16T07:53:03Z</time>
      </trkpt>
      <trkpt lat="49.10006" lon="7.51785">
        <ele>310.27</ele>
        <time>2019-06-16T07:53:17Z</time>
      </trkpt>
      <trkpt lat="49.10013" lon="7.51821">
        <ele>310.66</ele>
        <time>2019-06-16T07:53:37Z</time>
      </trkpt>
      <trkpt lat="49.10018" lon="7.5186">
        <ele>311.69</ele>
        <time>2019-06-16T07:53:58Z</time>
      </trkpt>
      <trkpt lat="49.1002" lon="7.51886">
        <ele>312.51</ele>
        <time>2019-06-16T07:54:11Z</time>
      </trkpt>
      <trkpt lat="49.10018" lon="7.51906">
        <ele>313.7</ele>
        <time>2019-06-16T07:54:27Z</time>
      </trkpt>
      <trkpt lat="49.10019" lon="7.51955">
        <ele>315.04</ele>
        <time>2019-06-16T07:54:52Z</time>
      </trkpt>
      <trkpt lat="49.10023" lon="7.51978">
        <ele>315.42</ele>
        <time>2019-06-16T07:55:04Z</time>
      </trkpt>
      <trkpt lat="49.10024" lon="7.51985">
        <ele>315.65</ele>
        <time>2019-06-16T07:55:08Z</time>
      </trkpt>
      <trkpt lat="49.10026" lon="7.52014">
        <ele>316.33</ele>
        <time>2019-06-16T07:55:24Z</time>
      </trkpt>
      <trkpt lat="49.10026" lon="7.52016">
        <ele>316.36</ele>
        <time>2019-06-16T07:55:25Z</time>
      </trkpt>
      <trkpt lat="49.10023" lon="7.52028">
        <ele>316.4</ele>
        <time>2019-06-16T07:55:33Z</time>
      </trkpt>
      <trkpt lat="49.10024" lon="7.52052">
        <ele>316.75</ele>
        <time>2019-06-16T07:55:49Z</time>
      </trkpt>
      <trkpt lat="49.10026" lon="7.52061">
        <ele>317.1</ele>
        <time>2019-06-16T07:55:56Z</time>
      </trkpt>
      <trkpt lat="49.10026" lon="7.52065">
        <ele>317.24</ele>
        <time>2019-06-16T07:55:58Z</time>
      </trkpt>
      <trkpt lat="49.1003" lon="7.52088">
        <ele>317.98</ele>
        <time>2019-06-16T07:56:12Z</time>
      </trkpt>
      <trkpt lat="49.10035" lon="7.52115">
        <ele>318.98</ele>
        <time>2019-06-16T07:56:27Z</time>
      </trkpt>
      <trkpt lat="49.10036" lon="7.52148">
        <ele>319.65</ele>
        <time>2019-06-16T07:56:45Z</time>
      </trkpt>
      <trkpt lat="49.10035" lon="7.522">
        <ele>321</ele>
        <time>2019-06-16T07:57:14Z</time>
      </trkpt>
      <trkpt lat="49.10042" lon="7.52238">
        <ele>322.53</ele>
        <time>2019-06-16T07:57:35Z</time>
      </trkpt>
      <trkpt lat="49.10042" lon="7.52249">
        <ele>322.8</ele>
        <time>2019-06-16T07:57:41Z</time>
      </trkpt>
      <trkpt lat="49.10044" lon="7.52275">
        <ele>323.37</ele>
        <time>2019-06-16T07:57:54Z</time>
      </trkpt>
      <trkpt lat="49.10046" lon="7.52287">
        <ele>323.64</ele>
        <time>2019-06-16T07:58:00Z</time>
      </trkpt>
      <trkpt lat="49.10048" lon="7.52309">
        <ele>324.15</ele>
        <time>2019-06-16T07:58:13Z</time>
      </trkpt>
      <trkpt lat="49.1005" lon="7.5232">
        <ele>324.62</ele>
        <time>2019-06-16T07:58:20Z</time>
      </trkpt>
      <trkpt lat="49.10054" lon="7.52344">
        <ele>325.24</ele>
        <time>2019-06-16T07:58:35Z</time>
      </trkpt>
      <trkpt lat="49.10055" lon="7.52354">
        <ele>325.51</ele>
        <time>2019-06-16T07:58:43Z</time>
      </trkpt>
      <trkpt lat="49.10058" lon="7.5237">
        <ele>325.92</ele>
        <time>2019-06-16T07:58:51Z</time>
      </trkpt>
      <trkpt lat="49.10062" lon="7.52397">
        <ele>326.26</ele>
        <time>2019-06-16T07:59:04Z</time>
      </trkpt>
      <trkpt lat="49.10065" lon="7.52421">
        <ele>326.34</ele>
        <time>2019-06-16T07:59:19Z</time>
      </trkpt>
      <trkpt lat="49.10069" lon="7.52469">
        <ele>326.8</ele>
        <time>2019-06-16T07:59:48Z</time>
      </trkpt>
      <trkpt lat="49.10072" lon="7.52512">
        <ele>327.38</ele>
        <time>2019-06-16T08:00:09Z</time>
      </trkpt>
      <trkpt lat="49.10082" lon="7.52562">
        <ele>328.39</ele>
        <time>2019-06-16T08:00:36Z</time>
      </trkpt>
      <trkpt lat="49.10088" lon="7.52606">
        <ele>329.85</ele>
        <time>2019-06-16T08:01:02Z</time>
      </trkpt>
      <trkpt lat="49.10096" lon="7.5264">
        <ele>330.92</ele>
        <time>2019-06-16T08:01:22Z</time>
      </trkpt>
      <trkpt lat="49.10105" lon="7.52681">
        <ele>332.83</ele>
        <time>2019-06-16T08:01:45Z</time>
      </trkpt>
      <trkpt lat="49.10119" lon="7.52719">
        <ele>334.32</ele>
        <time>2019-06-16T08:02:09Z</time>
      </trkpt>
      <trkpt lat="49.10134" lon="7.52753">
        <ele>335.3</ele>
        <time>2019-06-16T08:02:30Z</time>
      </trkpt>
      <trkpt lat="49.10143" lon="7.52777">
        <ele>336.16</ele>
        <time>2019-06-16T08:02:44Z</time>
      </trkpt>
      <trkpt lat="49.10149" lon="7.528">
        <ele>337.25</ele>
        <time>2019-06-16T08:02:57Z</time>
      </trkpt>
      <trkpt lat="49.10154" lon="7.5281">
        <ele>337.4</ele>
        <time>2019-06-16T08:03:09Z</time>
      </trkpt>
      <trkpt lat="49.10157" lon="7.5282">
        <ele>337.72</ele>
        <time>2019-06-16T08:03:21Z</time>
      </trkpt>
      <trkpt lat="49.10164" lon="7.52848">
        <ele>337.46</ele>
        <time>2019-06-16T08:03:43Z</time>
      </trkpt>
      <trkpt lat="49.10175" lon="7.52875">
        <ele>336.89</ele>
        <time>2019-06-16T08:04:09Z</time>
      </trkpt>
      <trkpt lat="49.10195" lon="7.52905">
        <ele>335.79</ele>
        <time>2019-06-16T08:04:34Z</time>
      </trkpt>
      <trkpt lat="49.10201" lon="7.52913">
        <ele>335.49</ele>
        <time>2019-06-16T08:04:42Z</time>
      </trkpt>
      <trkpt lat="49.10211" lon="7.52936">
        <ele>334.73</ele>
        <time>2019-06-16T08:05:00Z</time>
      </trkpt>
      <trkpt lat="49.10217" lon="7.52951">
        <ele>333.78</ele>
        <time>2019-06-16T08:05:20Z</time>
      </trkpt>
      <trkpt lat="49.10217" lon="7.52953">
        <ele>333.55</ele>
        <time>2019-06-16T08:05:25Z</time>
      </trkpt>
      <trkpt lat="49.10224" lon="7.52947">
        <ele>332.67</ele>
        <time>2019-06-16T08:07:06Z</time>
      </trkpt>
      <trkpt lat="49.10225" lon="7.52947">
        <ele>332.66</ele>
        <time>2019-06-16T08:07:09Z</time>
      </trkpt>
      <trkpt lat="49.10227" lon="7.5296">
        <ele>332.87</ele>
        <time>2019-06-16T08:07:32Z</time>
      </trkpt>
      <trkpt lat="49.1024" lon="7.52991">
        <ele>331.44</ele>
        <time>2019-06-16T08:08:00Z</time>
      </trkpt>
      <trkpt lat="49.10259" lon="7.53021">
        <ele>330.2</ele>
        <time>2019-06-16T08:08:27Z</time>
      </trkpt>
      <trkpt lat="49.10275" lon="7.53047">
        <ele>327.73</ele>
        <time>2019-06-16T08:08:50Z</time>
      </trkpt>
      <trkpt lat="49.103" lon="7.53077">
        <ele>326.85</ele>
        <time>2019-06-16T08:09:16Z</time>
      </trkpt>
      <trkpt lat="49.1032" lon="7.53089">
        <ele>325.37</ele>
        <time>2019-06-16T08:09:38Z</time>
      </trkpt>
      <trkpt lat="49.10321" lon="7.53089">
        <ele>325.2</ele>
        <time>2019-06-16T08:09:42Z</time>
      </trkpt>
      <trkpt lat="49.10326" lon="7.53105">
        <ele>325.78</ele>
        <time>2019-06-16T08:10:34Z</time>
      </trkpt>
      <trkpt lat="49.10345" lon="7.5312">
        <ele>325.11</ele>
        <time>2019-06-16T08:10:55Z</time>
      </trkpt>
      <trkpt lat="49.10374" lon="7.53136">
        <ele>325.31</ele>
        <time>2019-06-16T08:11:19Z</time>
      </trkpt>
      <trkpt lat="49.10399" lon="7.53158">
        <ele>325.12</ele>
        <time>2019-06-16T08:11:44Z</time>
      </trkpt>
      <trkpt lat="49.10424" lon="7.53184">
        <ele>326.1</ele>
        <time>2019-06-16T08:12:05Z</time>
      </trkpt>
      <trkpt lat="49.10435" lon="7.53199">
        <ele>326.39</ele>
        <time>2019-06-16T08:12:17Z</time>
      </trkpt>
      <trkpt lat="49.10438" lon="7.53203">
        <ele>326.35</ele>
        <time>2019-06-16T08:12:20Z</time>
      </trkpt>
      <trkpt lat="49.10441" lon="7.53207">
        <ele>326.68</ele>
        <time>2019-06-16T08:12:24Z</time>
      </trkpt>
      <trkpt lat="49.10447" lon="7.53213">
        <ele>326.93</ele>
        <time>2019-06-16T08:12:30Z</time>
      </trkpt>
      <trkpt lat="49.10453" lon="7.53224">
        <ele>327.21</ele>
        <time>2019-06-16T08:12:37Z</time>
      </trkpt>
      <trkpt lat="49.1046" lon="7.53237">
        <ele>327.48</ele>
        <time>2019-06-16T08:12:45Z</time>
      </trkpt>
      <trkpt lat="49.10474" lon="7.53262">
        <ele>328.07</ele>
        <time>2019-06-16T08:13:00Z</time>
      </trkpt>
      <trkpt lat="49.10478" lon="7.53269">
        <ele>328.16</ele>
        <time>2019-06-16T08:13:05Z</time>
      </trkpt>
      <trkpt lat="49.10498" lon="7.53309">
        <ele>328.96</ele>
        <time>2019-06-16T08:13:30Z</time>
      </trkpt>
      <trkpt lat="49.1051" lon="7.53352">
        <ele>329.66</ele>
        <time>2019-06-16T08:13:54Z</time>
      </trkpt>
      <trkpt lat="49.10512" lon="7.53376">
        <ele>330.07</ele>
        <time>2019-06-16T08:14:07Z</time>
      </trkpt>
      <trkpt lat="49.10511" lon="7.53403">
        <ele>330.07</ele>
        <time>2019-06-16T08:14:21Z</time>
      </trkpt>
      <trkpt lat="49.10508" lon="7.53421">
        <ele>331.13</ele>
        <time>2019-06-16T08:14:31Z</time>
      </trkpt>
      <trkpt lat="49.10509" lon="7.53443">
        <ele>331.71</ele>
        <time>2019-06-16T08:14:41Z</time>
      </trkpt>
      <trkpt lat="49.10507" lon="7.53454">
        <ele>332.03</ele>
        <time>2019-06-16T08:14:47Z</time>
      </trkpt>
      <trkpt lat="49.10507" lon="7.53465">
        <ele>332.03</ele>
        <time>2019-06-16T08:14:53Z</time>
      </trkpt>
      <trkpt lat="49.10504" lon="7.53477">
        <ele>331.94</ele>
        <time>2019-06-16T08:15:00Z</time>
      </trkpt>
      <trkpt lat="49.10498" lon="7.53506">
        <ele>331.15</ele>
        <time>2019-06-16T08:15:14Z</time>
      </trkpt>
      <trkpt lat="49.10488" lon="7.53537">
        <ele>330.92</ele>
        <time>2019-06-16T08:15:29Z</time>
      </trkpt>
      <trkpt lat="49.10486" lon="7.53543">
        <ele>330.84</ele>
        <time>2019-06-16T08:15:32Z</time>
      </trkpt>
      <trkpt lat="49.10485" lon="7.53553">
        <ele>330.96</ele>
        <time>2019-06-16T08:15:36Z</time>
      </trkpt>
      <trkpt lat="49.10483" lon="7.53579">
        <ele>331.35</ele>
        <time>2019-06-16T08:15:50Z</time>
      </trkpt>
      <trkpt lat="49.10489" lon="7.53598">
        <ele>331.83</ele>
        <time>2019-06-16T08:16:05Z</time>
      </trkpt>
      <trkpt lat="49.10494" lon="7.53607">
        <ele>331.94</ele>
        <time>2019-06-16T08:16:19Z</time>
      </trkpt>
      <trkpt lat="49.10494" lon="7.53609">
        <ele>332.25</ele>
        <time>2019-06-16T08:16:24Z</time>
      </trkpt>
      <trkpt lat="49.10497" lon="7.53625">
        <ele>332.99</ele>
        <time>2019-06-16T08:16:38Z</time>
      </trkpt>
      <trkpt lat="49.105" lon="7.53637">
        <ele>333.65</ele>
        <time>2019-06-16T08:16:46Z</time>
      </trkpt>
      <trkpt lat="49.10509" lon="7.53661">
        <ele>334.86</ele>
        <time>2019-06-16T08:17:04Z</time>
      </trkpt>
      <trkpt lat="49.10515" lon="7.5368">
        <ele>335.14</ele>
        <time>2019-06-16T08:17:21Z</time>
      </trkpt>
      <trkpt lat="49.1052" lon="7.53694">
        <ele>335.61</ele>
        <time>2019-06-16T08:17:32Z</time>
      </trkpt>
      <trkpt lat="49.10529" lon="7.5373">
        <ele>337.73</ele>
        <time>2019-06-16T08:17:53Z</time>
      </trkpt>
      <trkpt lat="49.10544" lon="7.53779">
        <ele>339.55</ele>
        <time>2019-06-16T08:18:20Z</time>
      </trkpt>
      <trkpt lat="49.10556" lon="7.53832">
        <ele>341.16</ele>
        <time>2019-06-16T08:18:48Z</time>
      </trkpt>
      <trkpt lat="49.10568" lon="7.53875">
        <ele>342.09</ele>
        <time>2019-06-16T08:19:10Z</time>
      </trkpt>
      <trkpt lat="49.10575" lon="7.53895">
        <ele>342.45</ele>
        <time>2019-06-16T08:19:30Z</time>
      </trkpt>
      <trkpt lat="49.10597" lon="7.53869">
        <ele>342.59</ele>
        <time>2019-06-16T08:20:07Z</time>
      </trkpt>
      <trkpt lat="49.10609" lon="7.53868">
        <ele>342.85</ele>
        <time>2019-06-16T08:20:25Z</time>
      </trkpt>
      <trkpt lat="49.10626" lon="7.53901">
        <ele>343.98</ele>
        <time>2019-06-16T08:21:38Z</time>
      </trkpt>
      <trkpt lat="49.10641" lon="7.53926">
        <ele>345.06</ele>
        <time>2019-06-16T08:22:01Z</time>
      </trkpt>
      <trkpt lat="49.10658" lon="7.53968">
        <ele>346.94</ele>
        <time>2019-06-16T08:22:29Z</time>
      </trkpt>
      <trkpt lat="49.10666" lon="7.53985">
        <ele>347.61</ele>
        <time>2019-06-16T08:22:41Z</time>
      </trkpt>
      <trkpt lat="49.10681" lon="7.54008">
        <ele>348.73</ele>
        <time>2019-06-16T08:22:59Z</time>
      </trkpt>
      <trkpt lat="49.10696" lon="7.54039">
        <ele>350.26</ele>
        <time>2019-06-16T08:23:23Z</time>
      </trkpt>
      <trkpt lat="49.10707" lon="7.54072">
        <ele>351.72</ele>
        <time>2019-06-16T08:23:45Z</time>
      </trkpt>
      <trkpt lat="49.10726" lon="7.54109">
        <ele>353.05</ele>
        <time>2019-06-16T08:24:11Z</time>
      </trkpt>
      <trkpt lat="49.10738" lon="7.54146">
        <ele>354.67</ele>
        <time>2019-06-16T08:24:36Z</time>
      </trkpt>
      <trkpt lat="49.1075" lon="7.54181">
        <ele>356.16</ele>
        <time>2019-06-16T08:25:02Z</time>
      </trkpt>
      <trkpt lat="49.1076" lon="7.5422">
        <ele>358.21</ele>
        <time>2019-06-16T08:25:30Z</time>
      </trkpt>
      <trkpt lat="49.10777" lon="7.54253">
        <ele>359.24</ele>
        <time>2019-06-16T08:25:56Z</time>
      </trkpt>
      <trkpt lat="49.10783" lon="7.54267">
        <ele>360.2</ele>
        <time>2019-06-16T08:26:14Z</time>
      </trkpt>
      <trkpt lat="49.10797" lon="7.54311">
        <ele>362.1</ele>
        <time>2019-06-16T08:27:53Z</time>
      </trkpt>
      <trkpt lat="49.10812" lon="7.54342">
        <ele>363.39</ele>
        <time>2019-06-16T08:28:19Z</time>
      </trkpt>
      <trkpt lat="49.1083" lon="7.54353">
        <ele>364.79</ele>
        <time>2019-06-16T08:28:43Z</time>
      </trkpt>
      <trkpt lat="49.10847" lon="7.54345">
        <ele>365.39</ele>
        <time>2019-06-16T08:29:07Z</time>
      </trkpt>
      <trkpt lat="49.10852" lon="7.54331">
        <ele>364.64</ele>
        <time>2019-06-16T08:29:17Z</time>
      </trkpt>
      <trkpt lat="49.10861" lon="7.54301">
        <ele>362.45</ele>
        <time>2019-06-16T08:29:43Z</time>
      </trkpt>
      <trkpt lat="49.10867" lon="7.54279">
        <ele>360.17</ele>
        <time>2019-06-16T08:30:04Z</time>
      </trkpt>
      <trkpt lat="49.10875" lon="7.54245">
        <ele>359.03</ele>
        <time>2019-06-16T08:30:33Z</time>
      </trkpt>
      <trkpt lat="49.109" lon="7.54217">
        <ele>358.44</ele>
        <time>2019-06-16T08:31:02Z</time>
      </trkpt>
      <trkpt lat="49.10924" lon="7.54209">
        <ele>357.94</ele>
        <time>2019-06-16T08:31:29Z</time>
      </trkpt>
      <trkpt lat="49.10946" lon="7.54212">
        <ele>357.62</ele>
        <time>2019-06-16T08:31:43Z</time>
      </trkpt>
      <trkpt lat="49.10976" lon="7.5423">
        <ele>357.29</ele>
        <time>2019-06-16T08:32:10Z</time>
      </trkpt>
      <trkpt lat="49.10984" lon="7.54245">
        <ele>357.09</ele>
        <time>2019-06-16T08:32:22Z</time>
      </trkpt>
      <trkpt lat="49.10999" lon="7.54286">
        <ele>356.12</ele>
        <time>2019-06-16T08:32:47Z</time>
      </trkpt>
      <trkpt lat="49.11015" lon="7.54324">
        <ele>355.01</ele>
        <time>2019-06-16T08:33:16Z</time>
      </trkpt>
      <trkpt lat="49.11029" lon="7.5436">
        <ele>353.52</ele>
        <time>2019-06-16T08:33:41Z</time>
      </trkpt>
      <trkpt lat="49.11036" lon="7.54399">
        <ele>352.52</ele>
        <time>2019-06-16T08:34:05Z</time>
      </trkpt>
      <trkpt lat="49.11046" lon="7.54441">
        <ele>351.38</ele>
        <time>2019-06-16T08:34:28Z</time>
      </trkpt>
      <trkpt lat="49.11046" lon="7.54487">
        <ele>350.57</ele>
        <time>2019-06-16T08:34:53Z</time>
      </trkpt>
      <trkpt lat="49.11052" lon="7.54524">
        <ele>350.02</ele>
        <time>2019-06-16T08:35:14Z</time>
      </trkpt>
      <trkpt lat="49.1106" lon="7.54567">
        <ele>349.2</ele>
        <time>2019-06-16T08:35:38Z</time>
      </trkpt>
      <trkpt lat="49.1106" lon="7.54611">
        <ele>347.49</ele>
        <time>2019-06-16T08:36:02Z</time>
      </trkpt>
      <trkpt lat="49.11062" lon="7.54662">
        <ele>346.3</ele>
        <time>2019-06-16T08:36:29Z</time>
      </trkpt>
      <trkpt lat="49.11061" lon="7.54673">
        <ele>346.05</ele>
        <time>2019-06-16T08:36:35Z</time>
      </trkpt>
      <trkpt lat="49.11062" lon="7.54683">
        <ele>345.49</ele>
        <time>2019-06-16T08:36:41Z</time>
      </trkpt>
      <trkpt lat="49.11064" lon="7.54706">
        <ele>345.17</ele>
        <time>2019-06-16T08:36:54Z</time>
      </trkpt>
      <trkpt lat="49.11065" lon="7.54729">
        <ele>344.26</ele>
        <time>2019-06-16T08:37:09Z</time>
      </trkpt>
      <trkpt lat="49.11061" lon="7.54751">
        <ele>343.01</ele>
        <time>2019-06-16T08:37:24Z</time>
      </trkpt>
      <trkpt lat="49.11058" lon="7.5476">
        <ele>342.65</ele>
        <time>2019-06-16T08:37:30Z</time>
      </trkpt>
      <trkpt lat="49.11051" lon="7.54791">
        <ele>341.49</ele>
        <time>2019-06-16T08:37:45Z</time>
      </trkpt>
      <trkpt lat="49.1105" lon="7.54805">
        <ele>340.88</ele>
        <time>2019-06-16T08:37:52Z</time>
      </trkpt>
      <trkpt lat="49.11049" lon="7.54813">
        <ele>340.47</ele>
        <time>2019-06-16T08:37:56Z</time>
      </trkpt>
      <trkpt lat="49.11049" lon="7.54815">
        <ele>340.34</ele>
        <time>2019-06-16T08:37:57Z</time>
      </trkpt>
      <trkpt lat="49.11046" lon="7.54837">
        <ele>339.45</ele>
        <time>2019-06-16T08:38:08Z</time>
      </trkpt>
      <trkpt lat="49.11041" lon="7.54873">
        <ele>338.03</ele>
        <time>2019-06-16T08:38:26Z</time>
      </trkpt>
      <trkpt lat="49.11036" lon="7.5492">
        <ele>335.96</ele>
        <time>2019-06-16T08:38:49Z</time>
      </trkpt>
      <trkpt lat="49.1103" lon="7.54953">
        <ele>334.71</ele>
        <time>2019-06-16T08:39:13Z</time>
      </trkpt>
      <trkpt lat="49.11027" lon="7.54943">
        <ele>335.5</ele>
        <time>2019-06-16T08:39:29Z</time>
      </trkpt>
      <trkpt lat="49.11024" lon="7.54933">
        <ele>335.05</ele>
        <time>2019-06-16T08:39:40Z</time>
      </trkpt>
      <trkpt lat="49.11029" lon="7.55005">
        <ele>335.45</ele>
        <time>2019-06-16T08:42:20Z</time>
      </trkpt>
      <trkpt lat="49.11023" lon="7.55035">
        <ele>337.15</ele>
        <time>2019-06-16T08:42:43Z</time>
      </trkpt>
      <trkpt lat="49.11017" lon="7.55066">
        <ele>339.17</ele>
        <time>2019-06-16T08:43:06Z</time>
      </trkpt>
      <trkpt lat="49.11012" lon="7.55092">
        <ele>340.77</ele>
        <time>2019-06-16T08:43:25Z</time>
      </trkpt>
      <trkpt lat="49.11011" lon="7.55093">
        <ele>340.98</ele>
        <time>2019-06-16T08:43:29Z</time>
      </trkpt>
      <trkpt lat="49.10987" lon="7.55108">
        <ele>344.8</ele>
        <time>2019-06-16T08:45:32Z</time>
      </trkpt>
      <trkpt lat="49.10995" lon="7.55103">
        <ele>344.41</ele>
        <time>2019-06-16T08:45:38Z</time>
      </trkpt>
      <trkpt lat="49.11018" lon="7.55129">
        <ele>347.51</ele>
        <time>2019-06-16T08:45:53Z</time>
      </trkpt>
      <trkpt lat="49.11017" lon="7.55136">
        <ele>347.34</ele>
        <time>2019-06-16T08:46:02Z</time>
      </trkpt>
      <trkpt lat="49.11018" lon="7.55137">
        <ele>350.01</ele>
        <time>2019-06-16T08:48:18Z</time>
      </trkpt>
      <trkpt lat="49.11015" lon="7.55139">
        <ele>350.54</ele>
        <time>2019-06-16T08:48:25Z</time>
      </trkpt>
      <trkpt lat="49.11008" lon="7.55159">
        <ele>353.66</ele>
        <time>2019-06-16T08:50:36Z</time>
      </trkpt>
      <trkpt lat="49.11008" lon="7.55162">
        <ele>353.98</ele>
        <time>2019-06-16T08:50:41Z</time>
      </trkpt>
      <trkpt lat="49.11005" lon="7.55218">
        <ele>353.44</ele>
        <time>2019-06-16T08:54:46Z</time>
      </trkpt>
      <trkpt lat="49.1099" lon="7.55241">
        <ele>355.62</ele>
        <time>2019-06-16T08:55:10Z</time>
      </trkpt>
      <trkpt lat="49.10981" lon="7.55266">
        <ele>358.66</ele>
        <time>2019-06-16T08:55:33Z</time>
      </trkpt>
      <trkpt lat="49.10973" lon="7.5529">
        <ele>361.78</ele>
        <time>2019-06-16T08:55:57Z</time>
      </trkpt>
      <trkpt lat="49.10962" lon="7.55308">
        <ele>364.79</ele>
        <time>2019-06-16T08:56:19Z</time>
      </trkpt>
      <trkpt lat="49.10948" lon="7.55331">
        <ele>366.44</ele>
        <time>2019-06-16T08:56:45Z</time>
      </trkpt>
      <trkpt lat="49.10929" lon="7.55357">
        <ele>365.18</ele>
        <time>2019-06-16T08:57:14Z</time>
      </trkpt>
      <trkpt lat="49.10901" lon="7.55382">
        <ele>364.34</ele>
        <time>2019-06-16T08:57:45Z</time>
      </trkpt>
      <trkpt lat="49.10878" lon="7.55414">
        <ele>363.56</ele>
        <time>2019-06-16T08:58:18Z</time>
      </trkpt>
      <trkpt lat="49.10876" lon="7.55415">
        <ele>363.47</ele>
        <time>2019-06-16T08:58:19Z</time>
      </trkpt>
      <trkpt lat="49.10852" lon="7.55454">
        <ele>361.69</ele>
        <time>2019-06-16T08:58:50Z</time>
      </trkpt>
      <trkpt lat="49.10839" lon="7.55498">
        <ele>359.69</ele>
        <time>2019-06-16T08:59:17Z</time>
      </trkpt>
      <trkpt lat="49.10823" lon="7.55543">
        <ele>357.94</ele>
        <time>2019-06-16T08:59:47Z</time>
      </trkpt>
      <trkpt lat="49.10813" lon="7.55583">
        <ele>356.47</ele>
        <time>2019-06-16T09:00:13Z</time>
      </trkpt>
      <trkpt lat="49.10801" lon="7.55618">
        <ele>354.72</ele>
        <time>2019-06-16T09:00:39Z</time>
      </trkpt>
      <trkpt lat="49.10801" lon="7.55619">
        <ele>354.65</ele>
        <time>2019-06-16T09:00:40Z</time>
      </trkpt>
      <trkpt lat="49.10801" lon="7.55656">
        <ele>352.98</ele>
        <time>2019-06-16T09:01:04Z</time>
      </trkpt>
      <trkpt lat="49.10805" lon="7.55693">
        <ele>352.06</ele>
        <time>2019-06-16T09:01:22Z</time>
      </trkpt>
      <trkpt lat="49.10806" lon="7.55701">
        <ele>351.85</ele>
        <time>2019-06-16T09:01:26Z</time>
      </trkpt>
      <trkpt lat="49.1081" lon="7.55724">
        <ele>350.91</ele>
        <time>2019-06-16T09:01:40Z</time>
      </trkpt>
      <trkpt lat="49.10815" lon="7.5576">
        <ele>349.15</ele>
        <time>2019-06-16T09:02:02Z</time>
      </trkpt>
      <trkpt lat="49.10825" lon="7.55799">
        <ele>346.7</ele>
        <time>2019-06-16T09:02:28Z</time>
      </trkpt>
      <trkpt lat="49.10827" lon="7.55841">
        <ele>344.11</ele>
        <time>2019-06-16T09:02:55Z</time>
      </trkpt>
      <trkpt lat="49.10833" lon="7.55877">
        <ele>341.7</ele>
        <time>2019-06-16T09:03:20Z</time>
      </trkpt>
      <trkpt lat="49.10844" lon="7.55917">
        <ele>339.44</ele>
        <time>2019-06-16T09:03:45Z</time>
      </trkpt>
      <trkpt lat="49.10849" lon="7.55954">
        <ele>336.71</ele>
        <time>2019-06-16T09:04:10Z</time>
      </trkpt>
      <trkpt lat="49.10855" lon="7.55975">
        <ele>335.57</ele>
        <time>2019-06-16T09:04:25Z</time>
      </trkpt>
      <trkpt lat="49.10856" lon="7.55988">
        <ele>334.7</ele>
        <time>2019-06-16T09:04:34Z</time>
      </trkpt>
      <trkpt lat="49.10859" lon="7.56004">
        <ele>333.55</ele>
        <time>2019-06-16T09:04:48Z</time>
      </trkpt>
      <trkpt lat="49.10871" lon="7.56027">
        <ele>331.98</ele>
        <time>2019-06-16T09:05:03Z</time>
      </trkpt>
      <trkpt lat="49.10876" lon="7.56036">
        <ele>331.27</ele>
        <time>2019-06-16T09:05:10Z</time>
      </trkpt>
      <trkpt lat="49.10887" lon="7.56053">
        <ele>329.54</ele>
        <time>2019-06-16T09:05:27Z</time>
      </trkpt>
      <trkpt lat="49.10897" lon="7.56055">
        <ele>328.46</ele>
        <time>2019-06-16T09:05:38Z</time>
      </trkpt>
      <trkpt lat="49.109" lon="7.56057">
        <ele>328.29</ele>
        <time>2019-06-16T09:05:42Z</time>
      </trkpt>
      <trkpt lat="49.10911" lon="7.5606">
        <ele>326.95</ele>
        <time>2019-06-16T09:05:56Z</time>
      </trkpt>
      <trkpt lat="49.10926" lon="7.56064">
        <ele>325.21</ele>
        <time>2019-06-16T09:06:07Z</time>
      </trkpt>
      <trkpt lat="49.10941" lon="7.56078">
        <ele>323.94</ele>
        <time>2019-06-16T09:06:21Z</time>
      </trkpt>
      <trkpt lat="49.1095" lon="7.56087">
        <ele>323.21</ele>
        <time>2019-06-16T09:06:31Z</time>
      </trkpt>
      <trkpt lat="49.10951" lon="7.5609">
        <ele>323.01</ele>
        <time>2019-06-16T09:06:33Z</time>
      </trkpt>
      <trkpt lat="49.10957" lon="7.56102">
        <ele>322.07</ele>
        <time>2019-06-16T09:06:42Z</time>
      </trkpt>
      <trkpt lat="49.10961" lon="7.56117">
        <ele>321.28</ele>
        <time>2019-06-16T09:06:51Z</time>
      </trkpt>
      <trkpt lat="49.10961" lon="7.5612">
        <ele>320.83</ele>
        <time>2019-06-16T09:06:56Z</time>
      </trkpt>
      <trkpt lat="49.10961" lon="7.56119">
        <ele>320.53</ele>
        <time>2019-06-16T09:06:58Z</time>
      </trkpt>
      <trkpt lat="49.10954" lon="7.561">
        <ele>320.29</ele>
        <time>2019-06-16T09:07:15Z</time>
      </trkpt>
      <trkpt lat="49.10944" lon="7.56094">
        <ele>319.91</ele>
        <time>2019-06-16T09:07:23Z</time>
      </trkpt>
      <trkpt lat="49.10925" lon="7.56088">
        <ele>320.67</ele>
        <time>2019-06-16T09:07:42Z</time>
      </trkpt>
      <trkpt lat="49.10923" lon="7.56089">
        <ele>320.62</ele>
        <time>2019-06-16T09:07:46Z</time>
      </trkpt>
      <trkpt lat="49.10916" lon="7.56096">
        <ele>320.74</ele>
        <time>2019-06-16T09:07:59Z</time>
      </trkpt>
      <trkpt lat="49.1091" lon="7.56099">
        <ele>320.81</ele>
        <time>2019-06-16T09:08:07Z</time>
      </trkpt>
      <trkpt lat="49.10882" lon="7.56093">
        <ele>320.77</ele>
        <time>2019-06-16T09:08:21Z</time>
      </trkpt>
      <trkpt lat="49.10872" lon="7.5609">
        <ele>320.5</ele>
        <time>2019-06-16T09:08:27Z</time>
      </trkpt>
      <trkpt lat="49.10851" lon="7.56077">
        <ele>320.22</ele>
        <time>2019-06-16T09:08:42Z</time>
      </trkpt>
      <trkpt lat="49.10845" lon="7.5607">
        <ele>319.85</ele>
        <time>2019-06-16T09:08:48Z</time>
      </trkpt>
      <trkpt lat="49.10839" lon="7.56066">
        <ele>319.76</ele>
        <time>2019-06-16T09:08:53Z</time>
      </trkpt>
      <trkpt lat="49.10833" lon="7.56052">
        <ele>319.85</ele>
        <time>2019-06-16T09:09:01Z</time>
      </trkpt>
      <trkpt lat="49.10824" lon="7.56026">
        <ele>320</ele>
        <time>2019-06-16T09:09:15Z</time>
      </trkpt>
      <trkpt lat="49.10822" lon="7.5602">
        <ele>319.92</ele>
        <time>2019-06-16T09:09:18Z</time>
      </trkpt>
      <trkpt lat="49.10815" lon="7.55995">
        <ele>319.63</ele>
        <time>2019-06-16T09:09:33Z</time>
      </trkpt>
      <trkpt lat="49.10806" lon="7.55977">
        <ele>319.48</ele>
        <time>2019-06-16T09:09:49Z</time>
      </trkpt>
      <trkpt lat="49.10804" lon="7.55967">
        <ele>319.37</ele>
        <time>2019-06-16T09:09:56Z</time>
      </trkpt>
      <trkpt lat="49.10801" lon="7.55954">
        <ele>319.58</ele>
        <time>2019-06-16T09:10:03Z</time>
      </trkpt>
      <trkpt lat="49.10798" lon="7.55938">
        <ele>319.36</ele>
        <time>2019-06-16T09:10:12Z</time>
      </trkpt>
      <trkpt lat="49.10791" lon="7.55909">
        <ele>318.81</ele>
        <time>2019-06-16T09:10:27Z</time>
      </trkpt>
      <trkpt lat="49.10774" lon="7.55858">
        <ele>317.89</ele>
        <time>2019-06-16T09:10:58Z</time>
      </trkpt>
      <trkpt lat="49.1076" lon="7.55806">
        <ele>317.44</ele>
        <time>2019-06-16T09:11:26Z</time>
      </trkpt>
      <trkpt lat="49.10748" lon="7.55771">
        <ele>316.91</ele>
        <time>2019-06-16T09:11:50Z</time>
      </trkpt>
      <trkpt lat="49.10736" lon="7.5573">
        <ele>314.52</ele>
        <time>2019-06-16T09:12:15Z</time>
      </trkpt>
      <trkpt lat="49.10727" lon="7.55707">
        <ele>313.27</ele>
        <time>2019-06-16T09:12:31Z</time>
      </trkpt>
      <trkpt lat="49.10725" lon="7.55697">
        <ele>312.9</ele>
        <time>2019-06-16T09:12:38Z</time>
      </trkpt>
      <trkpt lat="49.10718" lon="7.55673">
        <ele>312.17</ele>
        <time>2019-06-16T09:12:51Z</time>
      </trkpt>
      <trkpt lat="49.10713" lon="7.55648">
        <ele>311.38</ele>
        <time>2019-06-16T09:13:05Z</time>
      </trkpt>
      <trkpt lat="49.10714" lon="7.55627">
        <ele>310.87</ele>
        <time>2019-06-16T09:13:15Z</time>
      </trkpt>
      <trkpt lat="49.10719" lon="7.55599">
        <ele>310.25</ele>
        <time>2019-06-16T09:13:29Z</time>
      </trkpt>
      <trkpt lat="49.10718" lon="7.55579">
        <ele>309.34</ele>
        <time>2019-06-16T09:13:42Z</time>
      </trkpt>
      <trkpt lat="49.1072" lon="7.55546">
        <ele>308.57</ele>
        <time>2019-06-16T09:13:57Z</time>
      </trkpt>
      <trkpt lat="49.10722" lon="7.55531">
        <ele>308.2</ele>
        <time>2019-06-16T09:14:05Z</time>
      </trkpt>
      <trkpt lat="49.10721" lon="7.55518">
        <ele>307.67</ele>
        <time>2019-06-16T09:14:12Z</time>
      </trkpt>
      <trkpt lat="49.10722" lon="7.55502">
        <ele>307.18</ele>
        <time>2019-06-16T09:14:21Z</time>
      </trkpt>
      <trkpt lat="49.10718" lon="7.55473">
        <ele>305.78</ele>
        <time>2019-06-16T09:14:37Z</time>
      </trkpt>
      <trkpt lat="49.10718" lon="7.55462">
        <ele>305.16</ele>
        <time>2019-06-16T09:14:45Z</time>
      </trkpt>
      <trkpt lat="49.10718" lon="7.55442">
        <ele>303.95</ele>
        <time>2019-06-16T09:14:59Z</time>
      </trkpt>
      <trkpt lat="49.1072" lon="7.55423">
        <ele>303.14</ele>
        <time>2019-06-16T09:15:11Z</time>
      </trkpt>
      <trkpt lat="49.10723" lon="7.55404">
        <ele>302.02</ele>
        <time>2019-06-16T09:15:25Z</time>
      </trkpt>
      <trkpt lat="49.10728" lon="7.55394">
        <ele>301.5</ele>
        <time>2019-06-16T09:15:31Z</time>
      </trkpt>
      <trkpt lat="49.10743" lon="7.55371">
        <ele>299.88</ele>
        <time>2019-06-16T09:15:50Z</time>
      </trkpt>
      <trkpt lat="49.10768" lon="7.55335">
        <ele>297.54</ele>
        <time>2019-06-16T09:16:18Z</time>
      </trkpt>
      <trkpt lat="49.10779" lon="7.55299">
        <ele>295.73</ele>
        <time>2019-06-16T09:16:45Z</time>
      </trkpt>
      <trkpt lat="49.10782" lon="7.55283">
        <ele>295.23</ele>
        <time>2019-06-16T09:17:04Z</time>
      </trkpt>
      <trkpt lat="49.10791" lon="7.55259">
        <ele>294.91</ele>
        <time>2019-06-16T09:17:51Z</time>
      </trkpt>
      <trkpt lat="49.10803" lon="7.5523">
        <ele>295.26</ele>
        <time>2019-06-16T09:18:18Z</time>
      </trkpt>
      <trkpt lat="49.10808" lon="7.55196">
        <ele>296.3</ele>
        <time>2019-06-16T09:18:41Z</time>
      </trkpt>
      <trkpt lat="49.10817" lon="7.55173">
        <ele>296.94</ele>
        <time>2019-06-16T09:18:59Z</time>
      </trkpt>
      <trkpt lat="49.10831" lon="7.55129">
        <ele>297.91</ele>
        <time>2019-06-16T09:19:24Z</time>
      </trkpt>
      <trkpt lat="49.10833" lon="7.5512">
        <ele>298.16</ele>
        <time>2019-06-16T09:19:29Z</time>
      </trkpt>
      <trkpt lat="49.10839" lon="7.55081">
        <ele>298.81</ele>
        <time>2019-06-16T09:19:53Z</time>
      </trkpt>
      <trkpt lat="49.10831" lon="7.55045">
        <ele>298.4</ele>
        <time>2019-06-16T09:20:17Z</time>
      </trkpt>
      <trkpt lat="49.1081" lon="7.55014">
        <ele>298.85</ele>
        <time>2019-06-16T09:20:44Z</time>
      </trkpt>
      <trkpt lat="49.10789" lon="7.54986">
        <ele>299.26</ele>
        <time>2019-06-16T09:21:07Z</time>
      </trkpt>
      <trkpt lat="49.10767" lon="7.54956">
        <ele>299.92</ele>
        <time>2019-06-16T09:21:31Z</time>
      </trkpt>
      <trkpt lat="49.10749" lon="7.54915">
        <ele>300.49</ele>
        <time>2019-06-16T09:21:57Z</time>
      </trkpt>
      <trkpt lat="49.1073" lon="7.54878">
        <ele>301.2</ele>
        <time>2019-06-16T09:22:22Z</time>
      </trkpt>
      <trkpt lat="49.10711" lon="7.5485">
        <ele>301.8</ele>
        <time>2019-06-16T09:22:45Z</time>
      </trkpt>
      <trkpt lat="49.10705" lon="7.54827">
        <ele>302.02</ele>
        <time>2019-06-16T09:22:57Z</time>
      </trkpt>
      <trkpt lat="49.10696" lon="7.54811">
        <ele>302.29</ele>
        <time>2019-06-16T09:23:07Z</time>
      </trkpt>
      <trkpt lat="49.10694" lon="7.54792">
        <ele>302.17</ele>
        <time>2019-06-16T09:23:17Z</time>
      </trkpt>
      <trkpt lat="49.10692" lon="7.54786">
        <ele>302.17</ele>
        <time>2019-06-16T09:23:20Z</time>
      </trkpt>
      <trkpt lat="49.10692" lon="7.54768">
        <ele>302.05</ele>
        <time>2019-06-16T09:23:29Z</time>
      </trkpt>
      <trkpt lat="49.10689" lon="7.54755">
        <ele>302.22</ele>
        <time>2019-06-16T09:23:36Z</time>
      </trkpt>
      <trkpt lat="49.10689" lon="7.54747">
        <ele>302.24</ele>
        <time>2019-06-16T09:23:40Z</time>
      </trkpt>
      <trkpt lat="49.10682" lon="7.54716">
        <ele>302.9</ele>
        <time>2019-06-16T09:23:57Z</time>
      </trkpt>
      <trkpt lat="49.10682" lon="7.54714">
        <ele>302.93</ele>
        <time>2019-06-16T09:23:58Z</time>
      </trkpt>
      <trkpt lat="49.10674" lon="7.54692">
        <ele>303.32</ele>
        <time>2019-06-16T09:24:12Z</time>
      </trkpt>
      <trkpt lat="49.10672" lon="7.54679">
        <ele>303.84</ele>
        <time>2019-06-16T09:24:19Z</time>
      </trkpt>
      <trkpt lat="49.10667" lon="7.54673">
        <ele>304.14</ele>
        <time>2019-06-16T09:24:23Z</time>
      </trkpt>
      <trkpt lat="49.10665" lon="7.54664">
        <ele>304.47</ele>
        <time>2019-06-16T09:24:28Z</time>
      </trkpt>
      <trkpt lat="49.10663" lon="7.5466">
        <ele>304.67</ele>
        <time>2019-06-16T09:24:31Z</time>
      </trkpt>
      <trkpt lat="49.10662" lon="7.54651">
        <ele>304.88</ele>
        <time>2019-06-16T09:24:35Z</time>
      </trkpt>
      <trkpt lat="49.10664" lon="7.54645">
        <ele>304.97</ele>
        <time>2019-06-16T09:24:38Z</time>
      </trkpt>
      <trkpt lat="49.10662" lon="7.5464">
        <ele>305.02</ele>
        <time>2019-06-16T09:24:41Z</time>
      </trkpt>
      <trkpt lat="49.10662" lon="7.54633">
        <ele>305.04</ele>
        <time>2019-06-16T09:24:44Z</time>
      </trkpt>
      <trkpt lat="49.10662" lon="7.54621">
        <ele>305.14</ele>
        <time>2019-06-16T09:24:50Z</time>
      </trkpt>
      <trkpt lat="49.1066" lon="7.54593">
        <ele>305.76</ele>
        <time>2019-06-16T09:25:06Z</time>
      </trkpt>
      <trkpt lat="49.10659" lon="7.54567">
        <ele>306.57</ele>
        <time>2019-06-16T09:25:19Z</time>
      </trkpt>
      <trkpt lat="49.10657" lon="7.54553">
        <ele>307.04</ele>
        <time>2019-06-16T09:25:27Z</time>
      </trkpt>
      <trkpt lat="49.10652" lon="7.54545">
        <ele>307.18</ele>
        <time>2019-06-16T09:25:32Z</time>
      </trkpt>
      <trkpt lat="49.10647" lon="7.54523">
        <ele>307.89</ele>
        <time>2019-06-16T09:25:45Z</time>
      </trkpt>
      <trkpt lat="49.10646" lon="7.54517">
        <ele>308.12</ele>
        <time>2019-06-16T09:25:49Z</time>
      </trkpt>
      <trkpt lat="49.10644" lon="7.54512">
        <ele>308.26</ele>
        <time>2019-06-16T09:25:52Z</time>
      </trkpt>
      <trkpt lat="49.10645" lon="7.54503">
        <ele>308.53</ele>
        <time>2019-06-16T09:25:57Z</time>
      </trkpt>
      <trkpt lat="49.10643" lon="7.54496">
        <ele>308.79</ele>
        <time>2019-06-16T09:26:01Z</time>
      </trkpt>
      <trkpt lat="49.10637" lon="7.54488">
        <ele>308.99</ele>
        <time>2019-06-16T09:26:05Z</time>
      </trkpt>
      <trkpt lat="49.10637" lon="7.54465">
        <ele>309.79</ele>
        <time>2019-06-16T09:26:18Z</time>
      </trkpt>
      <trkpt lat="49.10631" lon="7.5444">
        <ele>310.83</ele>
        <time>2019-06-16T09:26:31Z</time>
      </trkpt>
      <trkpt lat="49.1063" lon="7.54436">
        <ele>310.8</ele>
        <time>2019-06-16T09:26:33Z</time>
      </trkpt>
      <trkpt lat="49.10633" lon="7.54404">
        <ele>312.2</ele>
        <time>2019-06-16T09:26:49Z</time>
      </trkpt>
      <trkpt lat="49.10632" lon="7.54401">
        <ele>312.44</ele>
        <time>2019-06-16T09:26:51Z</time>
      </trkpt>
      <trkpt lat="49.10627" lon="7.54393">
        <ele>312.87</ele>
        <time>2019-06-16T09:26:56Z</time>
      </trkpt>
      <trkpt lat="49.10629" lon="7.54375">
        <ele>313.69</ele>
        <time>2019-06-16T09:27:05Z</time>
      </trkpt>
      <trkpt lat="49.10625" lon="7.5436">
        <ele>314.71</ele>
        <time>2019-06-16T09:27:15Z</time>
      </trkpt>
      <trkpt lat="49.10617" lon="7.54332">
        <ele>316.34</ele>
        <time>2019-06-16T09:27:31Z</time>
      </trkpt>
      <trkpt lat="49.10615" lon="7.54319">
        <ele>316.91</ele>
        <time>2019-06-16T09:27:38Z</time>
      </trkpt>
      <trkpt lat="49.10615" lon="7.54307">
        <ele>317.65</ele>
        <time>2019-06-16T09:27:44Z</time>
      </trkpt>
      <trkpt lat="49.10606" lon="7.54289">
        <ele>318.55</ele>
        <time>2019-06-16T09:27:58Z</time>
      </trkpt>
      <trkpt lat="49.106" lon="7.54278">
        <ele>320.87</ele>
        <time>2019-06-16T09:28:11Z</time>
      </trkpt>
      <trkpt lat="49.10588" lon="7.54276">
        <ele>322.59</ele>
        <time>2019-06-16T09:28:25Z</time>
      </trkpt>
      <trkpt lat="49.1058" lon="7.54273">
        <ele>323.62</ele>
        <time>2019-06-16T09:28:35Z</time>
      </trkpt>
      <trkpt lat="49.10565" lon="7.54266">
        <ele>324.87</ele>
        <time>2019-06-16T09:28:51Z</time>
      </trkpt>
      <trkpt lat="49.10559" lon="7.54265">
        <ele>325.82</ele>
        <time>2019-06-16T09:29:00Z</time>
      </trkpt>
      <trkpt lat="49.10554" lon="7.54267">
        <ele>326.41</ele>
        <time>2019-06-16T09:29:07Z</time>
      </trkpt>
      <trkpt lat="49.10544" lon="7.54273">
        <ele>327.57</ele>
        <time>2019-06-16T09:29:22Z</time>
      </trkpt>
      <trkpt lat="49.10533" lon="7.54269">
        <ele>328.52</ele>
        <time>2019-06-16T09:29:34Z</time>
      </trkpt>
      <trkpt lat="49.10529" lon="7.54265">
        <ele>329.1</ele>
        <time>2019-06-16T09:29:39Z</time>
      </trkpt>
      <trkpt lat="49.10519" lon="7.54253">
        <ele>330.96</ele>
        <time>2019-06-16T09:29:52Z</time>
      </trkpt>
      <trkpt lat="49.10517" lon="7.54237">
        <ele>332.92</ele>
        <time>2019-06-16T09:30:06Z</time>
      </trkpt>
      <trkpt lat="49.10513" lon="7.54226">
        <ele>335.26</ele>
        <time>2019-06-16T09:30:20Z</time>
      </trkpt>
      <trkpt lat="49.10509" lon="7.54212">
        <ele>337.31</ele>
        <time>2019-06-16T09:30:33Z</time>
      </trkpt>
      <trkpt lat="49.10508" lon="7.54201">
        <ele>338.84</ele>
        <time>2019-06-16T09:30:44Z</time>
      </trkpt>
      <trkpt lat="49.10506" lon="7.54191">
        <ele>340.67</ele>
        <time>2019-06-16T09:30:57Z</time>
      </trkpt>
      <trkpt lat="49.10505" lon="7.54186">
        <ele>341.51</ele>
        <time>2019-06-16T09:31:03Z</time>
      </trkpt>
      <trkpt lat="49.10494" lon="7.54157">
        <ele>346.02</ele>
        <time>2019-06-16T09:31:34Z</time>
      </trkpt>
      <trkpt lat="49.10493" lon="7.54149">
        <ele>346.45</ele>
        <time>2019-06-16T09:31:41Z</time>
      </trkpt>
      <trkpt lat="49.10482" lon="7.54128">
        <ele>349.16</ele>
        <time>2019-06-16T09:32:05Z</time>
      </trkpt>
      <trkpt lat="49.10483" lon="7.54121">
        <ele>349.43</ele>
        <time>2019-06-16T09:32:10Z</time>
      </trkpt>
      <trkpt lat="49.10478" lon="7.54087">
        <ele>352.05</ele>
        <time>2019-06-16T09:32:36Z</time>
      </trkpt>
      <trkpt lat="49.10467" lon="7.54057">
        <ele>354.66</ele>
        <time>2019-06-16T09:33:04Z</time>
      </trkpt>
      <trkpt lat="49.10465" lon="7.54052">
        <ele>355.37</ele>
        <time>2019-06-16T09:33:09Z</time>
      </trkpt>
      <trkpt lat="49.10462" lon="7.54042">
        <ele>357.13</ele>
        <time>2019-06-16T09:33:20Z</time>
      </trkpt>
      <trkpt lat="49.10461" lon="7.54026">
        <ele>359.66</ele>
        <time>2019-06-16T09:33:36Z</time>
      </trkpt>
      <trkpt lat="49.10455" lon="7.54017">
        <ele>361.46</ele>
        <time>2019-06-16T09:33:49Z</time>
      </trkpt>
      <trkpt lat="49.10451" lon="7.54011">
        <ele>362.48</ele>
        <time>2019-06-16T09:34:00Z</time>
      </trkpt>
      <trkpt lat="49.10435" lon="7.53977">
        <ele>372.08</ele>
        <time>2019-06-16T09:35:18Z</time>
      </trkpt>
      <trkpt lat="49.10432" lon="7.53972">
        <ele>371.55</ele>
        <time>2019-06-16T09:35:26Z</time>
      </trkpt>
      <trkpt lat="49.1042" lon="7.53973">
        <ele>372.75</ele>
        <time>2019-06-16T09:36:54Z</time>
      </trkpt>
      <trkpt lat="49.10433" lon="7.53973">
        <ele>372.93</ele>
        <time>2019-06-16T09:37:21Z</time>
      </trkpt>
      <trkpt lat="49.10435" lon="7.53967">
        <ele>372.79</ele>
        <time>2019-06-16T09:37:28Z</time>
      </trkpt>
      <trkpt lat="49.1043" lon="7.53956">
        <ele>373.24</ele>
        <time>2019-06-16T09:37:56Z</time>
      </trkpt>
      <trkpt lat="49.10426" lon="7.53959">
        <ele>373.26</ele>
        <time>2019-06-16T09:37:59Z</time>
      </trkpt>
      <trkpt lat="49.10425" lon="7.53961">
        <ele>373.19</ele>
        <time>2019-06-16T09:38:05Z</time>
      </trkpt>
      <trkpt lat="49.10427" lon="7.53977">
        <ele>373.28</ele>
        <time>2019-06-16T09:38:18Z</time>
      </trkpt>
      <trkpt lat="49.10424" lon="7.53984">
        <ele>373.25</ele>
        <time>2019-06-16T09:38:26Z</time>
      </trkpt>
      <trkpt lat="49.10409" lon="7.53984">
        <ele>372.82</ele>
        <time>2019-06-16T09:39:28Z</time>
      </trkpt>
      <trkpt lat="49.10412" lon="7.53954">
        <ele>371.07</ele>
        <time>2019-06-16T09:39:49Z</time>
      </trkpt>
      <trkpt lat="49.10433" lon="7.53961">
        <ele>370.2</ele>
        <time>2019-06-16T09:41:36Z</time>
      </trkpt>
      <trkpt lat="49.10436" lon="7.53963">
        <ele>370.14</ele>
        <time>2019-06-16T09:41:40Z</time>
      </trkpt>
      <trkpt lat="49.10431" lon="7.53963">
        <ele>370.77</ele>
        <time>2019-06-16T09:41:56Z</time>
      </trkpt>
      <trkpt lat="49.10425" lon="7.53947">
        <ele>369.68</ele>
        <time>2019-06-16T09:44:27Z</time>
      </trkpt>
      <trkpt lat="49.10424" lon="7.53948">
        <ele>369.63</ele>
        <time>2019-06-16T09:44:31Z</time>
      </trkpt>
      <trkpt lat="49.10421" lon="7.53952">
        <ele>369.48</ele>
        <time>2019-06-16T09:44:42Z</time>
      </trkpt>
      <trkpt lat="49.10419" lon="7.53956">
        <ele>369.16</ele>
        <time>2019-06-16T09:44:48Z</time>
      </trkpt>
      <trkpt lat="49.10415" lon="7.5396">
        <ele>369.05</ele>
        <time>2019-06-16T09:44:55Z</time>
      </trkpt>
      <trkpt lat="49.10413" lon="7.53955">
        <ele>369.3</ele>
        <time>2019-06-16T09:45:01Z</time>
      </trkpt>
      <trkpt lat="49.10416" lon="7.53951">
        <ele>369.08</ele>
        <time>2019-06-16T09:45:08Z</time>
      </trkpt>
      <trkpt lat="49.10413" lon="7.53964">
        <ele>368.3</ele>
        <time>2019-06-16T09:46:17Z</time>
      </trkpt>
      <trkpt lat="49.10412" lon="7.53965">
        <ele>368.11</ele>
        <time>2019-06-16T09:46:23Z</time>
      </trkpt>
      <trkpt lat="49.10411" lon="7.53955">
        <ele>367.55</ele>
        <time>2019-06-16T09:46:58Z</time>
      </trkpt>
      <trkpt lat="49.10408" lon="7.53941">
        <ele>367.35</ele>
        <time>2019-06-16T09:47:12Z</time>
      </trkpt>
      <trkpt lat="49.10409" lon="7.5394">
        <ele>367.49</ele>
        <time>2019-06-16T09:47:13Z</time>
      </trkpt>
      <trkpt lat="49.10373" lon="7.53831">
        <ele>371.59</ele>
        <time>2019-06-16T09:52:08Z</time>
      </trkpt>
      <trkpt lat="49.10376" lon="7.53829">
        <ele>371.43</ele>
        <time>2019-06-16T09:52:18Z</time>
      </trkpt>
      <trkpt lat="49.10362" lon="7.53813">
        <ele>373.68</ele>
        <time>2019-06-16T09:54:43Z</time>
      </trkpt>
      <trkpt lat="49.10356" lon="7.53804">
        <ele>373.45</ele>
        <time>2019-06-16T09:54:58Z</time>
      </trkpt>
      <trkpt lat="49.10357" lon="7.53786">
        <ele>372.53</ele>
        <time>2019-06-16T09:55:23Z</time>
      </trkpt>
      <trkpt lat="49.10349" lon="7.53775">
        <ele>370.07</ele>
        <time>2019-06-16T09:55:45Z</time>
      </trkpt>
      <trkpt lat="49.10355" lon="7.5378">
        <ele>370.08</ele>
        <time>2019-06-16T09:56:03Z</time>
      </trkpt>
      <trkpt lat="49.1035" lon="7.53782">
        <ele>370</ele>
        <time>2019-06-16T09:56:16Z</time>
      </trkpt>
      <trkpt lat="49.10338" lon="7.5376">
        <ele>371.06</ele>
        <time>2019-06-16T09:56:41Z</time>
      </trkpt>
      <trkpt lat="49.1033" lon="7.53741">
        <ele>372.8</ele>
        <time>2019-06-16T09:56:56Z</time>
      </trkpt>
      <trkpt lat="49.10327" lon="7.53733">
        <ele>372.65</ele>
        <time>2019-06-16T09:57:02Z</time>
      </trkpt>
      <trkpt lat="49.10324" lon="7.53729">
        <ele>373.19</ele>
        <time>2019-06-16T09:57:05Z</time>
      </trkpt>
      <trkpt lat="49.10316" lon="7.53718">
        <ele>374</ele>
        <time>2019-06-16T09:57:15Z</time>
      </trkpt>
      <trkpt lat="49.10311" lon="7.53713">
        <ele>373.4</ele>
        <time>2019-06-16T09:57:19Z</time>
      </trkpt>
      <trkpt lat="49.10296" lon="7.53706">
        <ele>372.71</ele>
        <time>2019-06-16T09:57:34Z</time>
      </trkpt>
      <trkpt lat="49.10292" lon="7.53705">
        <ele>372.75</ele>
        <time>2019-06-16T09:57:38Z</time>
      </trkpt>
      <trkpt lat="49.10278" lon="7.53699">
        <ele>374.18</ele>
        <time>2019-06-16T09:57:52Z</time>
      </trkpt>
      <trkpt lat="49.10273" lon="7.53697">
        <ele>375.1</ele>
        <time>2019-06-16T09:57:59Z</time>
      </trkpt>
      <trkpt lat="49.10263" lon="7.53695">
        <ele>376.34</ele>
        <time>2019-06-16T09:58:12Z</time>
      </trkpt>
      <trkpt lat="49.10263" lon="7.53695">
        <ele>376.34</ele>
        <time>2019-06-16T09:58:15Z</time>
      </trkpt>
      <trkpt lat="49.10256" lon="7.53706">
        <ele>375.95</ele>
        <time>2019-06-16T09:58:28Z</time>
      </trkpt>
      <trkpt lat="49.10251" lon="7.53721">
        <ele>375.94</ele>
        <time>2019-06-16T09:58:40Z</time>
      </trkpt>
      <trkpt lat="49.10249" lon="7.53724">
        <ele>375.9</ele>
        <time>2019-06-16T09:58:46Z</time>
      </trkpt>
      <trkpt lat="49.10225" lon="7.53726">
        <ele>375.64</ele>
        <time>2019-06-16T10:00:18Z</time>
      </trkpt>
      <trkpt lat="49.10225" lon="7.5372">
        <ele>375.31</ele>
        <time>2019-06-16T10:00:37Z</time>
      </trkpt>
      <trkpt lat="49.10227" lon="7.53724">
        <ele>375.27</ele>
        <time>2019-06-16T10:00:43Z</time>
      </trkpt>
      <trkpt lat="49.10238" lon="7.53719">
        <ele>375.23</ele>
        <time>2019-06-16T10:00:52Z</time>
      </trkpt>
      <trkpt lat="49.10248" lon="7.53721">
        <ele>374.98</ele>
        <time>2019-06-16T10:01:04Z</time>
      </trkpt>
      <trkpt lat="49.10223" lon="7.53712">
        <ele>373.76</ele>
        <time>2019-06-16T10:01:21Z</time>
      </trkpt>
      <trkpt lat="49.10212" lon="7.53709">
        <ele>373.13</ele>
        <time>2019-06-16T10:01:32Z</time>
      </trkpt>
      <trkpt lat="49.10205" lon="7.53693">
        <ele>373.81</ele>
        <time>2019-06-16T10:01:46Z</time>
      </trkpt>
      <trkpt lat="49.10204" lon="7.53688">
        <ele>374.18</ele>
        <time>2019-06-16T10:01:49Z</time>
      </trkpt>
      <trkpt lat="49.10201" lon="7.53672">
        <ele>375.02</ele>
        <time>2019-06-16T10:01:58Z</time>
      </trkpt>
      <trkpt lat="49.10196" lon="7.53656">
        <ele>376.38</ele>
        <time>2019-06-16T10:02:12Z</time>
      </trkpt>
      <trkpt lat="49.10192" lon="7.53642">
        <ele>377.92</ele>
        <time>2019-06-16T10:02:29Z</time>
      </trkpt>
      <trkpt lat="49.10188" lon="7.53635">
        <ele>377.24</ele>
        <time>2019-06-16T10:02:36Z</time>
      </trkpt>
      <trkpt lat="49.10176" lon="7.53598">
        <ele>375.86</ele>
        <time>2019-06-16T10:03:03Z</time>
      </trkpt>
      <trkpt lat="49.10175" lon="7.53594">
        <ele>375.77</ele>
        <time>2019-06-16T10:03:10Z</time>
      </trkpt>
      <trkpt lat="49.10157" lon="7.53574">
        <ele>375.08</ele>
        <time>2019-06-16T10:04:03Z</time>
      </trkpt>
      <trkpt lat="49.10154" lon="7.5357">
        <ele>375.02</ele>
        <time>2019-06-16T10:04:08Z</time>
      </trkpt>
      <trkpt lat="49.10153" lon="7.53571">
        <ele>375.04</ele>
        <time>2019-06-16T10:04:13Z</time>
      </trkpt>
      <trkpt lat="49.10154" lon="7.53574">
        <ele>374.52</ele>
        <time>2019-06-16T10:04:27Z</time>
      </trkpt>
      <trkpt lat="49.10159" lon="7.53571">
        <ele>374.49</ele>
        <time>2019-06-16T10:04:31Z</time>
      </trkpt>
      <trkpt lat="49.10167" lon="7.53574">
        <ele>374.2</ele>
        <time>2019-06-16T10:04:43Z</time>
      </trkpt>
      <trkpt lat="49.10152" lon="7.53555">
        <ele>375.64</ele>
        <time>2019-06-16T10:05:30Z</time>
      </trkpt>
      <trkpt lat="49.10148" lon="7.53541">
        <ele>375.35</ele>
        <time>2019-06-16T10:05:42Z</time>
      </trkpt>
      <trkpt lat="49.10144" lon="7.5353">
        <ele>375.73</ele>
        <time>2019-06-16T10:05:52Z</time>
      </trkpt>
      <trkpt lat="49.10135" lon="7.53518">
        <ele>376.19</ele>
        <time>2019-06-16T10:06:01Z</time>
      </trkpt>
      <trkpt lat="49.10132" lon="7.53514">
        <ele>376.35</ele>
        <time>2019-06-16T10:06:05Z</time>
      </trkpt>
      <trkpt lat="49.10129" lon="7.53513">
        <ele>376.49</ele>
        <time>2019-06-16T10:06:08Z</time>
      </trkpt>
      <trkpt lat="49.10125" lon="7.5351">
        <ele>377.02</ele>
        <time>2019-06-16T10:06:13Z</time>
      </trkpt>
      <trkpt lat="49.10115" lon="7.535">
        <ele>378.09</ele>
        <time>2019-06-16T10:06:27Z</time>
      </trkpt>
      <trkpt lat="49.10102" lon="7.53493">
        <ele>378.28</ele>
        <time>2019-06-16T10:06:40Z</time>
      </trkpt>
      <trkpt lat="49.10109" lon="7.53488">
        <ele>378.46</ele>
        <time>2019-06-16T10:06:58Z</time>
      </trkpt>
      <trkpt lat="49.10113" lon="7.5349">
        <ele>378.51</ele>
        <time>2019-06-16T10:07:07Z</time>
      </trkpt>
      <trkpt lat="49.10111" lon="7.5349">
        <ele>378.34</ele>
        <time>2019-06-16T10:07:21Z</time>
      </trkpt>
      <trkpt lat="49.10104" lon="7.53488">
        <ele>378.72</ele>
        <time>2019-06-16T10:07:27Z</time>
      </trkpt>
      <trkpt lat="49.10088" lon="7.53482">
        <ele>377.91</ele>
        <time>2019-06-16T10:07:45Z</time>
      </trkpt>
      <trkpt lat="49.1008" lon="7.53483">
        <ele>377.32</ele>
        <time>2019-06-16T10:07:56Z</time>
      </trkpt>
      <trkpt lat="49.10074" lon="7.53486">
        <ele>377.28</ele>
        <time>2019-06-16T10:08:00Z</time>
      </trkpt>
      <trkpt lat="49.10054" lon="7.53497">
        <ele>376.99</ele>
        <time>2019-06-16T10:08:18Z</time>
      </trkpt>
      <trkpt lat="49.1004" lon="7.53509">
        <ele>377.26</ele>
        <time>2019-06-16T10:08:32Z</time>
      </trkpt>
      <trkpt lat="49.10026" lon="7.53511">
        <ele>378.14</ele>
        <time>2019-06-16T10:08:46Z</time>
      </trkpt>
      <trkpt lat="49.10012" lon="7.53506">
        <ele>377.82</ele>
        <time>2019-06-16T10:09:01Z</time>
      </trkpt>
      <trkpt lat="49.10004" lon="7.53492">
        <ele>378.45</ele>
        <time>2019-06-16T10:09:11Z</time>
      </trkpt>
      <trkpt lat="49.09997" lon="7.53475">
        <ele>377.34</ele>
        <time>2019-06-16T10:09:26Z</time>
      </trkpt>
      <trkpt lat="49.09992" lon="7.5347">
        <ele>376.72</ele>
        <time>2019-06-16T10:09:32Z</time>
      </trkpt>
      <trkpt lat="49.09974" lon="7.53456">
        <ele>376.77</ele>
        <time>2019-06-16T10:09:48Z</time>
      </trkpt>
      <trkpt lat="49.0996" lon="7.5344">
        <ele>376.61</ele>
        <time>2019-06-16T10:10:03Z</time>
      </trkpt>
      <trkpt lat="49.09951" lon="7.53422">
        <ele>376.61</ele>
        <time>2019-06-16T10:10:17Z</time>
      </trkpt>
      <trkpt lat="49.09939" lon="7.53407">
        <ele>376.76</ele>
        <time>2019-06-16T10:10:31Z</time>
      </trkpt>
      <trkpt lat="49.09935" lon="7.53389">
        <ele>376.89</ele>
        <time>2019-06-16T10:10:44Z</time>
      </trkpt>
      <trkpt lat="49.09923" lon="7.53372">
        <ele>376.44</ele>
        <time>2019-06-16T10:11:04Z</time>
      </trkpt>
      <trkpt lat="49.09915" lon="7.5335">
        <ele>377.9</ele>
        <time>2019-06-16T10:11:18Z</time>
      </trkpt>
      <trkpt lat="49.09915" lon="7.53344">
        <ele>378.12</ele>
        <time>2019-06-16T10:11:23Z</time>
      </trkpt>
      <trkpt lat="49.0991" lon="7.53326">
        <ele>377.77</ele>
        <time>2019-06-16T10:11:36Z</time>
      </trkpt>
      <trkpt lat="49.0991" lon="7.53325">
        <ele>377.78</ele>
        <time>2019-06-16T10:11:37Z</time>
      </trkpt>
      <trkpt lat="49.09901" lon="7.53316">
        <ele>377.17</ele>
        <time>2019-06-16T10:11:46Z</time>
      </trkpt>
      <trkpt lat="49.09885" lon="7.53299">
        <ele>376.88</ele>
        <time>2019-06-16T10:11:58Z</time>
      </trkpt>
      <trkpt lat="49.09865" lon="7.53275">
        <ele>374.77</ele>
        <time>2019-06-16T10:12:17Z</time>
      </trkpt>
      <trkpt lat="49.09853" lon="7.53259">
        <ele>374.94</ele>
        <time>2019-06-16T10:12:34Z</time>
      </trkpt>
      <trkpt lat="49.09842" lon="7.53244">
        <ele>376.89</ele>
        <time>2019-06-16T10:12:53Z</time>
      </trkpt>
      <trkpt lat="49.09834" lon="7.53223">
        <ele>376.19</ele>
        <time>2019-06-16T10:13:11Z</time>
      </trkpt>
      <trkpt lat="49.09828" lon="7.53202">
        <ele>376.8</ele>
        <time>2019-06-16T10:13:26Z</time>
      </trkpt>
      <trkpt lat="49.09827" lon="7.53201">
        <ele>376.71</ele>
        <time>2019-06-16T10:13:30Z</time>
      </trkpt>
      <trkpt lat="49.09823" lon="7.53195">
        <ele>376.63</ele>
        <time>2019-06-16T10:13:35Z</time>
      </trkpt>
      <trkpt lat="49.09817" lon="7.53181">
        <ele>376.42</ele>
        <time>2019-06-16T10:13:50Z</time>
      </trkpt>
      <trkpt lat="49.09811" lon="7.53175">
        <ele>375.93</ele>
        <time>2019-06-16T10:14:02Z</time>
      </trkpt>
      <trkpt lat="49.09784" lon="7.53149">
        <ele>370.86</ele>
        <time>2019-06-16T10:14:55Z</time>
      </trkpt>
      <trkpt lat="49.09778" lon="7.53146">
        <ele>371.43</ele>
        <time>2019-06-16T10:14:59Z</time>
      </trkpt>
      <trkpt lat="49.09774" lon="7.53144">
        <ele>371.49</ele>
        <time>2019-06-16T10:15:04Z</time>
      </trkpt>
      <trkpt lat="49.09771" lon="7.53137">
        <ele>372.01</ele>
        <time>2019-06-16T10:15:09Z</time>
      </trkpt>
      <trkpt lat="49.09769" lon="7.53132">
        <ele>372.11</ele>
        <time>2019-06-16T10:15:13Z</time>
      </trkpt>
      <trkpt lat="49.09768" lon="7.53123">
        <ele>371.63</ele>
        <time>2019-06-16T10:15:24Z</time>
      </trkpt>
      <trkpt lat="49.09756" lon="7.53106">
        <ele>371.73</ele>
        <time>2019-06-16T10:15:56Z</time>
      </trkpt>
      <trkpt lat="49.09755" lon="7.53095">
        <ele>370.02</ele>
        <time>2019-06-16T10:16:11Z</time>
      </trkpt>
      <trkpt lat="49.09755" lon="7.53068">
        <ele>368.9</ele>
        <time>2019-06-16T10:17:51Z</time>
      </trkpt>
      <trkpt lat="49.09755" lon="7.53056">
        <ele>368.7</ele>
        <time>2019-06-16T10:18:03Z</time>
      </trkpt>
      <trkpt lat="49.09756" lon="7.53061">
        <ele>368.77</ele>
        <time>2019-06-16T10:18:10Z</time>
      </trkpt>
      <trkpt lat="49.09742" lon="7.53068">
        <ele>368.42</ele>
        <time>2019-06-16T10:19:38Z</time>
      </trkpt>
      <trkpt lat="49.09737" lon="7.53041">
        <ele>370.64</ele>
        <time>2019-06-16T10:20:07Z</time>
      </trkpt>
      <trkpt lat="49.09736" lon="7.5304">
        <ele>370.77</ele>
        <time>2019-06-16T10:20:11Z</time>
      </trkpt>
      <trkpt lat="49.09725" lon="7.53">
        <ele>368.16</ele>
        <time>2019-06-16T10:20:56Z</time>
      </trkpt>
      <trkpt lat="49.09723" lon="7.52993">
        <ele>368.52</ele>
        <time>2019-06-16T10:21:01Z</time>
      </trkpt>
      <trkpt lat="49.09721" lon="7.52956">
        <ele>371.37</ele>
        <time>2019-06-16T10:21:27Z</time>
      </trkpt>
      <trkpt lat="49.0972" lon="7.52933">
        <ele>374.72</ele>
        <time>2019-06-16T10:21:48Z</time>
      </trkpt>
      <trkpt lat="49.09725" lon="7.52914">
        <ele>376.6</ele>
        <time>2019-06-16T10:22:10Z</time>
      </trkpt>
      <trkpt lat="49.0973" lon="7.52886">
        <ele>367.98</ele>
        <time>2019-06-16T10:27:11Z</time>
      </trkpt>
      <trkpt lat="49.09734" lon="7.52885">
        <ele>367.51</ele>
        <time>2019-06-16T10:27:20Z</time>
      </trkpt>
      <trkpt lat="49.09759" lon="7.52886">
        <ele>358.56</ele>
        <time>2019-06-16T10:28:21Z</time>
      </trkpt>
      <trkpt lat="49.09768" lon="7.52886">
        <ele>355.52</ele>
        <time>2019-06-16T10:28:36Z</time>
      </trkpt>
      <trkpt lat="49.09771" lon="7.52887">
        <ele>354.04</ele>
        <time>2019-06-16T10:28:44Z</time>
      </trkpt>
      <trkpt lat="49.0978" lon="7.52891">
        <ele>352.35</ele>
        <time>2019-06-16T10:28:57Z</time>
      </trkpt>
      <trkpt lat="49.0979" lon="7.52897">
        <ele>350.16</ele>
        <time>2019-06-16T10:29:11Z</time>
      </trkpt>
      <trkpt lat="49.09804" lon="7.52896">
        <ele>347.29</ele>
        <time>2019-06-16T10:29:25Z</time>
      </trkpt>
      <trkpt lat="49.09806" lon="7.52896">
        <ele>346.6</ele>
        <time>2019-06-16T10:29:30Z</time>
      </trkpt>
      <trkpt lat="49.09813" lon="7.52895">
        <ele>344.6</ele>
        <time>2019-06-16T10:29:41Z</time>
      </trkpt>
      <trkpt lat="49.09821" lon="7.52894">
        <ele>343.22</ele>
        <time>2019-06-16T10:29:54Z</time>
      </trkpt>
      <trkpt lat="49.09831" lon="7.52896">
        <ele>342.22</ele>
        <time>2019-06-16T10:30:07Z</time>
      </trkpt>
      <trkpt lat="49.09833" lon="7.52897">
        <ele>341.9</ele>
        <time>2019-06-16T10:30:12Z</time>
      </trkpt>
      <trkpt lat="49.09838" lon="7.52897">
        <ele>341.21</ele>
        <time>2019-06-16T10:30:55Z</time>
      </trkpt>
      <trkpt lat="49.09844" lon="7.52902">
        <ele>340.92</ele>
        <time>2019-06-16T10:31:09Z</time>
      </trkpt>
      <trkpt lat="49.09848" lon="7.52904">
        <ele>340.99</ele>
        <time>2019-06-16T10:31:16Z</time>
      </trkpt>
      <trkpt lat="49.09846" lon="7.52903">
        <ele>340.76</ele>
        <time>2019-06-16T10:31:24Z</time>
      </trkpt>
      <trkpt lat="49.09844" lon="7.52897">
        <ele>340.83</ele>
        <time>2019-06-16T10:32:26Z</time>
      </trkpt>
      <trkpt lat="49.09857" lon="7.52898">
        <ele>338.8</ele>
        <time>2019-06-16T10:32:39Z</time>
      </trkpt>
      <trkpt lat="49.09887" lon="7.52899">
        <ele>335.77</ele>
        <time>2019-06-16T10:33:01Z</time>
      </trkpt>
      <trkpt lat="49.09919" lon="7.52913">
        <ele>334.48</ele>
        <time>2019-06-16T10:33:24Z</time>
      </trkpt>
      <trkpt lat="49.09946" lon="7.52915">
        <ele>336.54</ele>
        <time>2019-06-16T10:33:48Z</time>
      </trkpt>
      <trkpt lat="49.09961" lon="7.52914">
        <ele>336.4</ele>
        <time>2019-06-16T10:34:08Z</time>
      </trkpt>
      <trkpt lat="49.09962" lon="7.52912">
        <ele>336.02</ele>
        <time>2019-06-16T10:34:12Z</time>
      </trkpt>
      <trkpt lat="49.09969" lon="7.52917">
        <ele>336.1</ele>
        <time>2019-06-16T10:34:30Z</time>
      </trkpt>
      <trkpt lat="49.09971" lon="7.52917">
        <ele>335.97</ele>
        <time>2019-06-16T10:34:31Z</time>
      </trkpt>
      <trkpt lat="49.10002" lon="7.52921">
        <ele>335.21</ele>
        <time>2019-06-16T10:34:55Z</time>
      </trkpt>
      <trkpt lat="49.10032" lon="7.52923">
        <ele>334.79</ele>
        <time>2019-06-16T10:35:20Z</time>
      </trkpt>
      <trkpt lat="49.10062" lon="7.52925">
        <ele>336.06</ele>
        <time>2019-06-16T10:35:46Z</time>
      </trkpt>
      <trkpt lat="49.10089" lon="7.52932">
        <ele>335.29</ele>
        <time>2019-06-16T10:36:05Z</time>
      </trkpt>
      <trkpt lat="49.10096" lon="7.52934">
        <ele>335.33</ele>
        <time>2019-06-16T10:36:09Z</time>
      </trkpt>
      <trkpt lat="49.10102" lon="7.52936">
        <ele>335.35</ele>
        <time>2019-06-16T10:36:12Z</time>
      </trkpt>
      <trkpt lat="49.10121" lon="7.52943">
        <ele>335.35</ele>
        <time>2019-06-16T10:36:26Z</time>
      </trkpt>
      <trkpt lat="49.10136" lon="7.52942">
        <ele>332.78</ele>
        <time>2019-06-16T10:36:42Z</time>
      </trkpt>
      <trkpt lat="49.10139" lon="7.52942">
        <ele>332.56</ele>
        <time>2019-06-16T10:36:44Z</time>
      </trkpt>
      <trkpt lat="49.10148" lon="7.52943">
        <ele>331.64</ele>
        <time>2019-06-16T10:36:51Z</time>
      </trkpt>
      <trkpt lat="49.10161" lon="7.52944">
        <ele>329.93</ele>
        <time>2019-06-16T10:37:04Z</time>
      </trkpt>
      <trkpt lat="49.10178" lon="7.52948">
        <ele>328.22</ele>
        <time>2019-06-16T10:37:19Z</time>
      </trkpt>
      <trkpt lat="49.10192" lon="7.52945">
        <ele>328.37</ele>
        <time>2019-06-16T10:37:33Z</time>
      </trkpt>
      <trkpt lat="49.10196" lon="7.52945">
        <ele>328.44</ele>
        <time>2019-06-16T10:37:41Z</time>
      </trkpt>
      <trkpt lat="49.10203" lon="7.52947">
        <ele>328.65</ele>
        <time>2019-06-16T10:37:53Z</time>
      </trkpt>
      <trkpt lat="49.10203" lon="7.52948">
        <ele>328.76</ele>
        <time>2019-06-16T10:37:58Z</time>
      </trkpt>
      <trkpt lat="49.10202" lon="7.52929">
        <ele>331.42</ele>
        <time>2019-06-16T10:38:49Z</time>
      </trkpt>
      <trkpt lat="49.10188" lon="7.52899">
        <ele>331.97</ele>
        <time>2019-06-16T10:39:14Z</time>
      </trkpt>
      <trkpt lat="49.10176" lon="7.52883">
        <ele>332.69</ele>
        <time>2019-06-16T10:39:28Z</time>
      </trkpt>
      <trkpt lat="49.10156" lon="7.52847">
        <ele>334.45</ele>
        <time>2019-06-16T10:39:53Z</time>
      </trkpt>
      <trkpt lat="49.10152" lon="7.52837">
        <ele>334.43</ele>
        <time>2019-06-16T10:39:59Z</time>
      </trkpt>
      <trkpt lat="49.10148" lon="7.5283">
        <ele>334.38</ele>
        <time>2019-06-16T10:40:04Z</time>
      </trkpt>
      <trkpt lat="49.10147" lon="7.52826">
        <ele>334.21</ele>
        <time>2019-06-16T10:40:07Z</time>
      </trkpt>
      <trkpt lat="49.10144" lon="7.52814">
        <ele>334.03</ele>
        <time>2019-06-16T10:40:13Z</time>
      </trkpt>
      <trkpt lat="49.10142" lon="7.52806">
        <ele>333.77</ele>
        <time>2019-06-16T10:40:17Z</time>
      </trkpt>
      <trkpt lat="49.10137" lon="7.52789">
        <ele>333.22</ele>
        <time>2019-06-16T10:40:25Z</time>
      </trkpt>
      <trkpt lat="49.10137" lon="7.52783">
        <ele>332.84</ele>
        <time>2019-06-16T10:40:29Z</time>
      </trkpt>
      <trkpt lat="49.10127" lon="7.52764">
        <ele>331.81</ele>
        <time>2019-06-16T10:40:41Z</time>
      </trkpt>
      <trkpt lat="49.10125" lon="7.52757">
        <ele>331.73</ele>
        <time>2019-06-16T10:40:44Z</time>
      </trkpt>
      <trkpt lat="49.10121" lon="7.52747">
        <ele>331.43</ele>
        <time>2019-06-16T10:40:50Z</time>
      </trkpt>
      <trkpt lat="49.10112" lon="7.5272">
        <ele>330.83</ele>
        <time>2019-06-16T10:41:03Z</time>
      </trkpt>
      <trkpt lat="49.10111" lon="7.52718">
        <ele>330.8</ele>
        <time>2019-06-16T10:41:04Z</time>
      </trkpt>
      <trkpt lat="49.10099" lon="7.52694">
        <ele>329.55</ele>
        <time>2019-06-16T10:41:18Z</time>
      </trkpt>
      <trkpt lat="49.10094" lon="7.52681">
        <ele>329.15</ele>
        <time>2019-06-16T10:41:27Z</time>
      </trkpt>
      <trkpt lat="49.10092" lon="7.52677">
        <ele>328.9</ele>
        <time>2019-06-16T10:41:30Z</time>
      </trkpt>
      <trkpt lat="49.10088" lon="7.52648">
        <ele>327.64</ele>
        <time>2019-06-16T10:41:44Z</time>
      </trkpt>
      <trkpt lat="49.10087" lon="7.52647">
        <ele>327.55</ele>
        <time>2019-06-16T10:41:45Z</time>
      </trkpt>
      <trkpt lat="49.10082" lon="7.52622">
        <ele>326.65</ele>
        <time>2019-06-16T10:41:55Z</time>
      </trkpt>
      <trkpt lat="49.10077" lon="7.52601">
        <ele>325.73</ele>
        <time>2019-06-16T10:42:05Z</time>
      </trkpt>
      <trkpt lat="49.10077" lon="7.52593">
        <ele>325.64</ele>
        <time>2019-06-16T10:42:09Z</time>
      </trkpt>
      <trkpt lat="49.10066" lon="7.52562">
        <ele>324.61</ele>
        <time>2019-06-16T10:42:23Z</time>
      </trkpt>
      <trkpt lat="49.10066" lon="7.52559">
        <ele>324.46</ele>
        <time>2019-06-16T10:42:24Z</time>
      </trkpt>
      <trkpt lat="49.10066" lon="7.52534">
        <ele>323.87</ele>
        <time>2019-06-16T10:42:34Z</time>
      </trkpt>
      <trkpt lat="49.10063" lon="7.52513">
        <ele>323.61</ele>
        <time>2019-06-16T10:42:45Z</time>
      </trkpt>
      <trkpt lat="49.10058" lon="7.5249">
        <ele>323.28</ele>
        <time>2019-06-16T10:42:58Z</time>
      </trkpt>
      <trkpt lat="49.10058" lon="7.52488">
        <ele>323.28</ele>
        <time>2019-06-16T10:42:59Z</time>
      </trkpt>
      <trkpt lat="49.10057" lon="7.52482">
        <ele>323.08</ele>
        <time>2019-06-16T10:43:03Z</time>
      </trkpt>
      <trkpt lat="49.10053" lon="7.52458">
        <ele>322.97</ele>
        <time>2019-06-16T10:43:15Z</time>
      </trkpt>
      <trkpt lat="49.10053" lon="7.52447">
        <ele>323.02</ele>
        <time>2019-06-16T10:43:19Z</time>
      </trkpt>
      <trkpt lat="49.10049" lon="7.52416">
        <ele>322.9</ele>
        <time>2019-06-16T10:43:33Z</time>
      </trkpt>
      <trkpt lat="49.10047" lon="7.52398">
        <ele>322.86</ele>
        <time>2019-06-16T10:43:44Z</time>
      </trkpt>
      <trkpt lat="49.10041" lon="7.52366">
        <ele>322.36</ele>
        <time>2019-06-16T10:43:59Z</time>
      </trkpt>
      <trkpt lat="49.10041" lon="7.52361">
        <ele>322.18</ele>
        <time>2019-06-16T10:44:01Z</time>
      </trkpt>
      <trkpt lat="49.10041" lon="7.52346">
        <ele>321.93</ele>
        <time>2019-06-16T10:44:06Z</time>
      </trkpt>
      <trkpt lat="49.10034" lon="7.52312">
        <ele>320.88</ele>
        <time>2019-06-16T10:44:20Z</time>
      </trkpt>
      <trkpt lat="49.1003" lon="7.52282">
        <ele>320.19</ele>
        <time>2019-06-16T10:44:33Z</time>
      </trkpt>
      <trkpt lat="49.10031" lon="7.5225">
        <ele>319.35</ele>
        <time>2019-06-16T10:44:49Z</time>
      </trkpt>
      <trkpt lat="49.1003" lon="7.52233">
        <ele>319.04</ele>
        <time>2019-06-16T10:44:58Z</time>
      </trkpt>
      <trkpt lat="49.1003" lon="7.52209">
        <ele>318.48</ele>
        <time>2019-06-16T10:45:11Z</time>
      </trkpt>
      <trkpt lat="49.10029" lon="7.52178">
        <ele>317.78</ele>
        <time>2019-06-16T10:45:26Z</time>
      </trkpt>
      <trkpt lat="49.10029" lon="7.52167">
        <ele>317.55</ele>
        <time>2019-06-16T10:45:32Z</time>
      </trkpt>
      <trkpt lat="49.10028" lon="7.52164">
        <ele>317.47</ele>
        <time>2019-06-16T10:45:34Z</time>
      </trkpt>
      <trkpt lat="49.10028" lon="7.52153">
        <ele>317.27</ele>
        <time>2019-06-16T10:45:39Z</time>
      </trkpt>
      <trkpt lat="49.10029" lon="7.52139">
        <ele>316.96</ele>
        <time>2019-06-16T10:45:46Z</time>
      </trkpt>
      <trkpt lat="49.10028" lon="7.52113">
        <ele>316.23</ele>
        <time>2019-06-16T10:46:00Z</time>
      </trkpt>
      <trkpt lat="49.10027" lon="7.52091">
        <ele>314.97</ele>
        <time>2019-06-16T10:46:12Z</time>
      </trkpt>
      <trkpt lat="49.10027" lon="7.52075">
        <ele>315.3</ele>
        <time>2019-06-16T10:46:20Z</time>
      </trkpt>
      <trkpt lat="49.10026" lon="7.52067">
        <ele>315.18</ele>
        <time>2019-06-16T10:46:25Z</time>
      </trkpt>
      <trkpt lat="49.10025" lon="7.52049">
        <ele>315.13</ele>
        <time>2019-06-16T10:46:34Z</time>
      </trkpt>
      <trkpt lat="49.10023" lon="7.52023">
        <ele>313.97</ele>
        <time>2019-06-16T10:46:49Z</time>
      </trkpt>
      <trkpt lat="49.10024" lon="7.51999">
        <ele>313.08</ele>
        <time>2019-06-16T10:47:01Z</time>
      </trkpt>
      <trkpt lat="49.10023" lon="7.51974">
        <ele>312.91</ele>
        <time>2019-06-16T10:47:15Z</time>
      </trkpt>
      <trkpt lat="49.10022" lon="7.51963">
        <ele>312.57</ele>
        <time>2019-06-16T10:47:21Z</time>
      </trkpt>
      <trkpt lat="49.1002" lon="7.5195">
        <ele>312.36</ele>
        <time>2019-06-16T10:47:29Z</time>
      </trkpt>
      <trkpt lat="49.10018" lon="7.51924">
        <ele>311.78</ele>
        <time>2019-06-16T10:47:44Z</time>
      </trkpt>
      <trkpt lat="49.10017" lon="7.51901">
        <ele>311.18</ele>
        <time>2019-06-16T10:47:56Z</time>
      </trkpt>
      <trkpt lat="49.10013" lon="7.51885">
        <ele>310.7</ele>
        <time>2019-06-16T10:48:06Z</time>
      </trkpt>
      <trkpt lat="49.10013" lon="7.51877">
        <ele>310.38</ele>
        <time>2019-06-16T10:48:10Z</time>
      </trkpt>
      <trkpt lat="49.10013" lon="7.51869">
        <ele>310.16</ele>
        <time>2019-06-16T10:48:15Z</time>
      </trkpt>
      <trkpt lat="49.10014" lon="7.51854">
        <ele>309.55</ele>
        <time>2019-06-16T10:48:23Z</time>
      </trkpt>
      <trkpt lat="49.10015" lon="7.51848">
        <ele>309.32</ele>
        <time>2019-06-16T10:48:26Z</time>
      </trkpt>
      <trkpt lat="49.10014" lon="7.51833">
        <ele>308.9</ele>
        <time>2019-06-16T10:48:35Z</time>
      </trkpt>
      <trkpt lat="49.10014" lon="7.51804">
        <ele>308.24</ele>
        <time>2019-06-16T10:48:49Z</time>
      </trkpt>
      <trkpt lat="49.10007" lon="7.51785">
        <ele>307.42</ele>
        <time>2019-06-16T10:49:02Z</time>
      </trkpt>
      <trkpt lat="49.09999" lon="7.51762">
        <ele>306.4</ele>
        <time>2019-06-16T10:49:17Z</time>
      </trkpt>
      <trkpt lat="49.09995" lon="7.51732">
        <ele>305.95</ele>
        <time>2019-06-16T10:49:34Z</time>
      </trkpt>
      <trkpt lat="49.09995" lon="7.5173">
        <ele>305.98</ele>
        <time>2019-06-16T10:49:35Z</time>
      </trkpt>
      <trkpt lat="49.09995" lon="7.51705">
        <ele>304.96</ele>
        <time>2019-06-16T10:49:50Z</time>
      </trkpt>
      <trkpt lat="49.09998" lon="7.51682">
        <ele>304.47</ele>
        <time>2019-06-16T10:50:05Z</time>
      </trkpt>
      <trkpt lat="49.09998" lon="7.51681">
        <ele>304.43</ele>
        <time>2019-06-16T10:50:09Z</time>
      </trkpt>
    </trkseg>
  </trk>
</gpx>